IT9BGI-13 Carini IT current weather conditions

sailwx.info

Wind from 103 at 0 knots gusting 3

Air temperature 27.2° C
Dewpoint 19.3° C

Last reported at 2019-Sep-23 03:05 UTC.
Time now 2019-Sep-23 03:30 UTC

Location: N 38°09' E 013°11'.
View on Google Maps.

See reports from other nearby stations

  
Tides and Currents Weather Stations Pressure Air Temp Water Temp Dewpoint Dewpoint Depression Visibility Wind Speed Wind Dir Waves Ship Positions
date/time (UTC)wind fromknots sea level pressurealtimeterstation pressurevisibilityair tempwater tempwave heightnotes
2019-Sep-23 03:10 122 0 gusting 3 27.8
2019-Sep-23 03:05 103 0 gusting 3 27.2
2019-Sep-23 03:00 065 27.2
2019-Sep-23 02:55 27.2
2019-Sep-23 02:50 222 1 gusting 9 27.8
2019-Sep-23 02:45 241 3 gusting 9 27.8
2019-Sep-23 02:40 269 1 gusting 6 27.8
2019-Sep-23 02:35 221 28.3
2019-Sep-23 02:30 216 28.3
2019-Sep-23 02:25 163 1 gusting 7 28.3
2019-Sep-23 02:20 191 4 gusting 11 28.3
2019-Sep-23 02:15 208 2 gusting 11 28.3
2019-Sep-23 02:10 094 0 gusting 5 28.9
2019-Sep-23 02:05 202 2 gusting 13 28.9
2019-Sep-23 02:00 196 2 gusting 13 28.9
2019-Sep-23 01:55 141 0 gusting 6 28.3
2019-Sep-23 01:50 012 28.3
2019-Sep-23 01:45 168 0 gusting 4 28.3
2019-Sep-23 01:40 168 0 gusting 5 28.3
2019-Sep-23 01:35 148 0 gusting 5 28.3
2019-Sep-23 01:30 115 0 gusting 3 28.3
2019-Sep-23 01:25 142 1 gusting 9 28.3
2019-Sep-23 01:20 147 3 gusting 11 28.3
2019-Sep-23 01:15 148 3 gusting 11 28.3
2019-Sep-23 01:10 166 5 gusting 13 28.3
2019-Sep-23 01:05 177 6 gusting 13 28.3
2019-Sep-23 01:00 188 6 gusting 13 28.9
2019-Sep-23 00:55 195 7 gusting 17 28.9
2019-Sep-23 00:50 195 7 gusting 17 28.9
2019-Sep-23 00:45 202 7 gusting 17 28.9
2019-Sep-23 00:40 206 9 gusting 19 28.9
2019-Sep-23 00:35 204 10 gusting 19 28.9
2019-Sep-23 00:30 205 11 gusting 19 28.9
2019-Sep-23 00:25 213 12 gusting 19 28.9
2019-Sep-23 00:20 213 12 gusting 19 28.9
2019-Sep-23 00:15 212 13 gusting 19 28.9
2019-Sep-23 00:10 208 13 gusting 26 28.9
2019-Sep-23 00:05 207 13 gusting 26 28.9
2019-Sep-23 00:00 215 13 gusting 21 28.3
2019-Sep-22 23:55 218 13 gusting 22 28.3
2019-Sep-22 23:50 216 13 gusting 25 28.3
2019-Sep-22 23:45 214 13 gusting 25 28.3
2019-Sep-22 23:40 213 14 gusting 28 28.3
2019-Sep-22 23:35 210 13 gusting 28 28.3
2019-Sep-22 23:30 209 13 gusting 25 28.3
2019-Sep-22 23:25 210 13 gusting 24 28.3
2019-Sep-22 23:20 213 14 gusting 23 28.3
2019-Sep-22 23:15 217 14 gusting 23 28.3
2019-Sep-22 23:09 215 15 gusting 23 28.3
2019-Sep-22 23:05 213 15 gusting 23 28.3
2019-Sep-22 23:00 217 14 gusting 23 28.3
2019-Sep-22 22:55 216 15 gusting 23 28.3
2019-Sep-22 22:50 215 14 gusting 22 28.3
2019-Sep-22 22:45 217 14 gusting 24 28.3
2019-Sep-22 22:40 214 14 gusting 25 28.3
2019-Sep-22 22:35 214 14 gusting 28 28.3
2019-Sep-22 22:30 212 14 gusting 28 27.8
2019-Sep-22 22:25 206 13 gusting 21 27.8
2019-Sep-22 22:20 207 13 gusting 23 27.8
2019-Sep-22 22:15 209 10 gusting 23 27.8
2019-Sep-22 22:10 199 7 gusting 20 27.8
2019-Sep-22 22:05 192 6 gusting 20 27.8
2019-Sep-22 22:00 182 5 gusting 13 27.8
2019-Sep-22 21:55 185 5 gusting 14 27.8
2019-Sep-22 21:50 181 5 gusting 14 27.8
2019-Sep-22 21:45 164 5 gusting 12 27.8
2019-Sep-22 21:40 156 4 gusting 11 27.8
2019-Sep-22 21:35 133 3 gusting 10 27.8
2019-Sep-22 21:30 121 3 gusting 12 27.8
2019-Sep-22 21:25 163 3 gusting 12 27.8
2019-Sep-22 21:20 154 1 gusting 12 27.8
2019-Sep-22 21:15 259 27.8
2019-Sep-22 21:10 170 2 gusting 13 27.8
2019-Sep-22 21:05 168 2 gusting 13 27.8
2019-Sep-22 21:00 144 27.2
2019-Sep-22 20:55 144 27.2
2019-Sep-22 20:50 189 0 gusting 5 26.7
2019-Sep-22 20:45 103 2 gusting 6 26.7
2019-Sep-22 20:40 057 1 gusting 9 26.7
2019-Sep-22 20:35 035 0 gusting 9 26.1
2019-Sep-22 20:30 031 1 gusting 6 26.1
2019-Sep-22 20:25 033 3 gusting 9 26.1
2019-Sep-22 20:20 010 3 gusting 9 25.6
2019-Sep-22 20:15 354 2 gusting 5 25.6
2019-Sep-22 20:10 031 2 gusting 6 26.1
2019-Sep-22 20:05 035 2 gusting 6 26.1
2019-Sep-22 20:00 007 1 gusting 6 26.1
2019-Sep-22 19:55 037 2 gusting 9 26.1
2019-Sep-22 19:50 087 2 gusting 9 25.6
2019-Sep-22 19:45 107 1 gusting 6 26.1
2019-Sep-22 19:40 110 0 gusting 5 25.6
2019-Sep-22 19:35 25.6
2019-Sep-22 19:30 070 26.1
2019-Sep-22 19:25 061 26.1
2019-Sep-22 19:20 054 26.1
2019-Sep-22 19:15 007 0 gusting 3 26.1
2019-Sep-22 19:10 005 0 gusting 5 26.1
2019-Sep-22 19:05 039 0 gusting 5 26.1
2019-Sep-22 19:00 043 2 gusting 8 26.1
2019-Sep-22 18:55 037 1 gusting 8 26.1
2019-Sep-22 18:50 056 26.1
2019-Sep-22 18:45 056 26.1
2019-Sep-22 18:40 048 0 gusting 3 26.7
2019-Sep-22 18:35 049 0 gusting 3 26.7
2019-Sep-22 18:30 053 26.7
2019-Sep-22 18:25 066 26.7
2019-Sep-22 18:20 066 27.2
2019-Sep-22 18:15 26.7
2019-Sep-22 18:10 034 27.2
2019-Sep-22 18:05 034 27.2
2019-Sep-22 18:00 034 27.8
2019-Sep-22 17:55 27.8
2019-Sep-22 17:50 27.8
2019-Sep-22 17:45 053 27.8
2019-Sep-22 17:40 051 28.3
2019-Sep-22 17:35 168 0 gusting 2 28.3
2019-Sep-22 17:30 154 0 gusting 2 28.3
2019-Sep-22 17:25 156 0 gusting 2 28.3
2019-Sep-22 17:20 202 28.3
2019-Sep-22 17:15 112 28.3
2019-Sep-22 17:10 126 28.3
2019-Sep-22 17:05 150 0 gusting 3 28.3
2019-Sep-22 17:00 159 1 gusting 3 28.3
2019-Sep-22 16:55 150 0 gusting 3 27.8
2019-Sep-22 16:50 047 27.8
2019-Sep-22 16:45 27.8
2019-Sep-22 16:40 053 0 gusting 5 28.3
2019-Sep-22 16:35 059 1 gusting 5 28.3
2019-Sep-22 16:30 059 0 gusting 4 28.3
2019-Sep-22 16:25 077 0 gusting 2 28.3
2019-Sep-22 16:20 066 1 gusting 2 28.3
2019-Sep-22 16:15 046 1 gusting 3 28.3
2019-Sep-22 16:10 043 2 gusting 4 28.9
2019-Sep-22 16:05 044 4 gusting 5 28.9
2019-Sep-22 16:00 044 5 gusting 5 28.9
2019-Sep-22 15:55 039 4 gusting 5 28.9
2019-Sep-22 15:50 045 3 gusting 3 29.4
2019-Sep-22 15:45 045 3 gusting 3 29.4
2019-Sep-22 15:40 030 4 gusting 9 29.4
2019-Sep-22 15:35 010 5 gusting 12 29.4
2019-Sep-22 15:30 357 3 gusting 12 29.4
2019-Sep-22 15:25 327 2 gusting 7 30.0
2019-Sep-22 15:20 352 3 gusting 7 30.0
2019-Sep-22 15:15 010 3 gusting 6 30.6
2019-Sep-22 15:10 004 2 gusting 5 31.1
2019-Sep-22 15:05 021 3 gusting 6 31.1
2019-Sep-22 15:00 027 3 gusting 6 31.1
2019-Sep-22 14:55 025 2 gusting 5 31.7
2019-Sep-22 14:50 024 2 gusting 5 31.7
2019-Sep-22 14:45 035 1 gusting 3 31.7
2019-Sep-22 14:40 057 0 gusting 6 31.7
2019-Sep-22 14:35 036 0 gusting 6 31.7
2019-Sep-22 14:30 023 1 gusting 6 31.1
2019-Sep-22 14:25 015 2 gusting 6 31.1
2019-Sep-22 14:20 017 2 gusting 6 31.1
2019-Sep-22 14:15 022 2 gusting 6 30.6
2019-Sep-22 14:10 039 3 gusting 5 30.6
2019-Sep-22 14:05 036 3 gusting 4 30.6
2019-Sep-22 14:00 022 3 gusting 3 31.1
2019-Sep-22 13:55 022 3 gusting 3 31.1
2019-Sep-22 13:50 029 3 gusting 4 31.1
2019-Sep-22 13:45 042 2 gusting 4 31.1
2019-Sep-22 13:40 038 2 gusting 4 30.6
2019-Sep-22 13:35 360 1 gusting 1 31.7
2019-Sep-22 13:30 360 1 gusting 1 31.7
2019-Sep-22 13:25 360 1 gusting 1 31.7
2019-Sep-22 13:20 360 1 gusting 1 31.7
2019-Sep-22 13:15 360 1 gusting 1 31.7
2019-Sep-22 13:10 360 1 gusting 1 31.7
2019-Sep-22 13:05 360 1 gusting 1 31.7
2019-Sep-22 13:00 360 1 gusting 1 31.7
2019-Sep-22 12:55 360 1 gusting 1 31.7
2019-Sep-22 12:50 360 1 gusting 1 31.7
2019-Sep-22 12:45 360 1 gusting 1 31.7
2019-Sep-22 12:40 360 1 gusting 1 31.7
2019-Sep-22 12:35 360 1 gusting 1 31.7
2019-Sep-22 12:30 006 2 gusting 4 31.7
2019-Sep-22 12:25 017 3 gusting 4 31.7
2019-Sep-22 12:20 019 3 gusting 6 31.1
2019-Sep-22 12:15 019 3 gusting 6 31.1
2019-Sep-22 12:10 024 3 gusting 6 31.1
2019-Sep-22 12:05 027 3 gusting 6 31.7
2019-Sep-22 12:00 023 2 gusting 6 31.7
2019-Sep-22 11:55 020 2 gusting 6 31.1
2019-Sep-22 11:50 022 2 gusting 6 31.1
2019-Sep-22 11:45 019 2 gusting 6 31.1
2019-Sep-22 11:40 021 2 gusting 6 31.1
2019-Sep-22 11:35 024 3 gusting 7 31.1
2019-Sep-22 11:30 030 4 gusting 8 31.1
2019-Sep-22 11:25 038 3 gusting 8 31.1
2019-Sep-22 11:20 035 2 gusting 6 31.1
2019-Sep-22 11:15 029 2 gusting 6 31.1
2019-Sep-22 11:10 018 3 gusting 7 31.1
2019-Sep-22 11:05 018 4 gusting 7 31.1
2019-Sep-22 11:00 029 2 gusting 7 31.1
2019-Sep-22 10:55 015 2 gusting 4 31.1
2019-Sep-22 10:50 009 2 gusting 5 31.1
2019-Sep-22 10:45 007 2 gusting 5 31.1
2019-Sep-22 10:40 016 2 gusting 5 31.1
2019-Sep-22 10:35 029 2 gusting 6 31.1
2019-Sep-22 10:30 033 2 gusting 6 30.6
2019-Sep-22 10:25 041 2 gusting 5 30.6
2019-Sep-22 10:20 039 2 gusting 6 30.6
2019-Sep-22 10:15 048 2 gusting 6 30.6
2019-Sep-22 10:10 061 1 gusting 4 30.6
2019-Sep-22 10:05 045 2 gusting 6 30.0
2019-Sep-22 10:00 040 3 gusting 6 30.0
2019-Sep-22 09:55 035 3 gusting 6 30.0
2019-Sep-22 09:50 027 2 gusting 6 30.0
2019-Sep-22 09:45 029 2 gusting 5 29.4
2019-Sep-22 09:40 035 3 gusting 6 29.4
2019-Sep-22 09:35 023 4 gusting 6 29.4
2019-Sep-22 09:30 019 3 gusting 6 29.4
2019-Sep-22 09:25 027 3 gusting 6 29.4
2019-Sep-22 09:20 024 3 gusting 6 29.4
2019-Sep-22 09:15 029 1 gusting 5 29.4
2019-Sep-22 09:10 039 0 gusting 3 29.4
2019-Sep-22 09:05 032 1 gusting 4 29.4
2019-Sep-22 09:00 024 2 gusting 4 28.9
2019-Sep-22 08:55 024 2 gusting 4 28.9
2019-Sep-22 08:50 029 1 gusting 3 28.3
2019-Sep-22 08:45 024 1 gusting 6 28.3
2019-Sep-22 08:40 022 0 gusting 6 27.8
2019-Sep-22 08:35 045 27.8
2019-Sep-22 08:30 010 0 gusting 2 27.2
2019-Sep-22 08:25 008 0 gusting 2 26.7
2019-Sep-22 08:20 26.7
2019-Sep-22 08:15 26.7
2019-Sep-22 08:10 26.7
2019-Sep-22 08:05 26.7
2019-Sep-22 08:00 26.1
2019-Sep-22 07:55 26.1
2019-Sep-22 07:50 25.6
2019-Sep-22 07:45 25.6
2019-Sep-22 07:40 022 25.6
2019-Sep-22 07:35 022 25.6
2019-Sep-22 07:30 25.0
2019-Sep-22 07:25 25.0
2019-Sep-22 07:20 25.0
2019-Sep-22 07:15 25.0
2019-Sep-22 07:10 25.0
2019-Sep-22 07:05 25.0
2019-Sep-22 07:00 25.0
2019-Sep-22 06:55 25.0
2019-Sep-22 06:50 24.4
2019-Sep-22 06:45 24.4
2019-Sep-22 06:40 24.4
2019-Sep-22 06:35 24.4
2019-Sep-22 06:30 24.4
2019-Sep-22 06:25 24.4
2019-Sep-22 06:20 23.9
2019-Sep-22 06:15 23.9
2019-Sep-22 06:10 23.9
2019-Sep-22 06:05 23.9
2019-Sep-22 06:00 23.9
2019-Sep-22 05:55 23.9
2019-Sep-22 05:50 23.3
2019-Sep-22 05:45 23.3
2019-Sep-22 05:40 23.3
2019-Sep-22 05:35 22.8
2019-Sep-22 05:30 22.8
2019-Sep-22 05:25 22.8
2019-Sep-22 05:20 22.8
2019-Sep-22 05:15 22.8
2019-Sep-22 05:10 22.8
2019-Sep-22 05:05 22.8
2019-Sep-22 05:00 22.8
2019-Sep-22 04:55 22.8
2019-Sep-22 04:50 22.8
2019-Sep-22 04:44 22.8
2019-Sep-22 04:40 22.8
2019-Sep-22 04:35 22.8
2019-Sep-22 04:30 22.8
2019-Sep-22 04:25 23.3
2019-Sep-22 04:20 22.8
2019-Sep-22 04:15 22.8
2019-Sep-22 04:10 23.3
2019-Sep-22 04:05 23.3
2019-Sep-22 04:00 23.3
2019-Sep-22 03:55 23.3
2019-Sep-22 03:50 23.3
2019-Sep-22 03:45 22.8
2019-Sep-22 03:40 22.8
2019-Sep-22 03:35 22.8
2019-Sep-22 03:30 22.8
2019-Sep-22 03:25 22.8
2019-Sep-22 03:20 22.8
2019-Sep-22 03:15 22.8
2019-Sep-22 03:10 22.8
2019-Sep-22 03:05 22.8
2019-Sep-22 03:00 22.8
2019-Sep-22 02:55 22.8
2019-Sep-22 02:50 22.8
2019-Sep-22 02:45 22.8
2019-Sep-22 02:40 22.8
2019-Sep-22 02:35 22.8
2019-Sep-22 02:30 22.8
2019-Sep-22 02:25 22.8
2019-Sep-22 02:20 23.3
2019-Sep-22 02:15 23.3
2019-Sep-22 02:10 23.3
2019-Sep-22 02:05 23.3
2019-Sep-22 02:00 23.9
2019-Sep-22 01:55 23.9
2019-Sep-22 01:50 23.3
2019-Sep-22 01:45 23.3
2019-Sep-22 01:40 23.9
2019-Sep-22 01:35 23.9
2019-Sep-22 01:30 23.9
2019-Sep-22 01:25 23.9
2019-Sep-22 01:20 23.3
2019-Sep-22 01:15 23.3
2019-Sep-22 01:10 011 23.3
2019-Sep-22 01:05 023 23.3
2019-Sep-22 01:00 056 23.3
2019-Sep-22 00:55 23.3
2019-Sep-22 00:50 23.9
2019-Sep-22 00:45 23.9
2019-Sep-22 00:40 23.9
2019-Sep-22 00:35 24.4
2019-Sep-22 00:30 056 24.4
2019-Sep-22 00:25 056 24.4
2019-Sep-22 00:20 067 24.4
2019-Sep-22 00:15 24.4
2019-Sep-22 00:10 222 25.0
2019-Sep-22 00:05 209 25.0
2019-Sep-22 00:00 158 25.0
2019-Sep-21 23:55 144 1 gusting 7 25.0
2019-Sep-21 23:50 136 0 gusting 6 24.4
2019-Sep-21 23:45 108 0 gusting 9 24.4
2019-Sep-21 23:40 109 0 gusting 9 24.4
2019-Sep-21 23:35 204 0 gusting 5 24.4
2019-Sep-21 23:30 202 1 gusting 6 24.4
2019-Sep-21 23:25 196 1 gusting 7 24.4
2019-Sep-21 23:20 181 1 gusting 7 24.4
2019-Sep-21 23:15 179 3 gusting 9 24.4
2019-Sep-21 23:10 179 1 gusting 9 24.4
2019-Sep-21 23:05 195 2 gusting 13 24.4
2019-Sep-21 23:00 199 5 gusting 13 24.4
2019-Sep-21 22:55 201 6 gusting 14 24.4
2019-Sep-21 22:50 199 3 gusting 14 24.4
2019-Sep-21 22:45 193 0 gusting 6 24.4
2019-Sep-21 22:40 209 0 gusting 7 24.4
2019-Sep-21 22:35 219 2 gusting 9 24.4
2019-Sep-21 22:30 215 3 gusting 9 24.4
2019-Sep-21 22:25 204 1 gusting 7 24.4
2019-Sep-21 22:20 209 24.4
2019-Sep-21 22:15 202 24.4
2019-Sep-21 22:10 24.4
2019-Sep-21 22:05 24.4
2019-Sep-21 22:00 24.4
2019-Sep-21 21:55 028 25.0
2019-Sep-21 21:50 010 25.0
2019-Sep-21 21:45 356 24.4
2019-Sep-21 21:40 24.4
2019-Sep-21 21:35 24.4
2019-Sep-21 21:30 24.4
2019-Sep-21 21:25 24.4
2019-Sep-21 21:20 24.4
2019-Sep-21 21:15 24.4
2019-Sep-21 21:10 24.4
2019-Sep-21 21:05 24.4
2019-Sep-21 21:00 24.4
2019-Sep-21 20:55 24.4
2019-Sep-21 20:50 24.4
2019-Sep-21 20:45 24.4
2019-Sep-21 20:40 24.4
2019-Sep-21 20:35 25.0
2019-Sep-21 20:30 24.4
2019-Sep-21 20:25 24.4
2019-Sep-21 20:20 180 24.4
2019-Sep-21 20:15 180 24.4
2019-Sep-21 20:10 25.0
2019-Sep-21 20:05 25.0
2019-Sep-21 20:00 202 25.0
2019-Sep-21 19:55 202 25.0
2019-Sep-21 19:50 25.0
2019-Sep-21 19:45 25.0
2019-Sep-21 19:40 25.0
2019-Sep-21 19:35 25.0
2019-Sep-21 19:30 25.0
2019-Sep-21 19:25 202 25.6
2019-Sep-21 19:20 202 25.6
2019-Sep-21 19:15 25.6
2019-Sep-21 19:10 25.6
2019-Sep-21 19:05 25.6
2019-Sep-21 18:59 25.6
2019-Sep-21 18:55 25.6
2019-Sep-21 18:50 25.6
2019-Sep-21 18:45 25.6
2019-Sep-21 18:40 25.6
2019-Sep-21 18:35 25.6
2019-Sep-21 18:30 25.6
2019-Sep-21 18:25 25.6
2019-Sep-21 18:20 25.6
2019-Sep-21 18:15 25.6
2019-Sep-21 18:10 25.6
2019-Sep-21 18:05 25.6
2019-Sep-21 18:00 25.6
2019-Sep-21 17:55 25.6
2019-Sep-21 17:50 25.6
2019-Sep-21 17:45 25.6
2019-Sep-21 17:40 25.6
2019-Sep-21 17:35 25.6
2019-Sep-21 17:30 180 25.6
2019-Sep-21 17:25 153 0 gusting 4 25.6
2019-Sep-21 17:20 143 0 gusting 4 25.6
2019-Sep-21 17:15 132 0 gusting 4 25.6
2019-Sep-21 17:10 139 25.6
2019-Sep-21 17:05 25.6
2019-Sep-21 17:00 26.1
2019-Sep-21 16:55 139 26.1
2019-Sep-21 16:50 131 0 gusting 5 26.1
2019-Sep-21 16:45 134 1 gusting 5 26.1
2019-Sep-21 16:40 138 0 gusting 4 26.1
2019-Sep-21 16:34 26.1
2019-Sep-21 16:30 26.1
2019-Sep-21 16:25 26.7
2019-Sep-21 16:20 149 26.7
2019-Sep-21 16:15 124 0 gusting 3 26.7
2019-Sep-21 16:10 123 0 gusting 3 26.7
2019-Sep-21 16:05 133 26.7
2019-Sep-21 16:00 119 26.7
2019-Sep-21 15:55 26.7
2019-Sep-21 15:50 26.7
2019-Sep-21 15:45 018 26.7
2019-Sep-21 15:40 015 26.7
2019-Sep-21 15:34 26.7
2019-Sep-21 15:30 26.7
2019-Sep-21 15:25 26.7
2019-Sep-21 15:20 26.7
2019-Sep-21 15:15 26.7
2019-Sep-21 15:10 26.7
2019-Sep-21 15:05 27.2
2019-Sep-21 15:00 26.7
2019-Sep-21 14:55 360 27.2
2019-Sep-21 14:50 360 27.2
2019-Sep-21 14:45 27.2
2019-Sep-21 14:40 27.2
2019-Sep-21 14:35 002 27.2
2019-Sep-21 14:30 339 26.7
2019-Sep-21 14:25 311 0 gusting 2 26.7
2019-Sep-21 14:20 006 1 gusting 2 26.7
2019-Sep-21 14:15 034 2 gusting 2 26.7
2019-Sep-21 14:10 040 2 gusting 2 26.7
2019-Sep-21 14:05 007 1 gusting 2 26.7
2019-Sep-21 14:00 012 1 gusting 2 26.7
2019-Sep-21 13:55 050 2 gusting 3 26.7
2019-Sep-21 13:50 042 2 gusting 3 26.7
2019-Sep-21 13:45 023 2 gusting 3 27.2
2019-Sep-21 13:40 023 1 gusting 3 27.2
2019-Sep-21 13:35 027 1 gusting 3 27.2
2019-Sep-21 13:30 025 1 gusting 3 27.8
2019-Sep-21 13:25 016 0 gusting 5 27.8
2019-Sep-21 13:20 028 0 gusting 5 28.3
2019-Sep-21 13:15 052 1 gusting 5 27.8
2019-Sep-21 13:10 042 2 gusting 5 28.3
2019-Sep-21 13:04 037 2 gusting 5 27.8
2019-Sep-21 12:59 032 3 gusting 6 27.8
2019-Sep-21 12:55 036 3 gusting 6 27.8
2019-Sep-21 12:50 044 3 gusting 6 27.2
2019-Sep-21 12:45 035 2 gusting 6 27.2
2019-Sep-21 12:40 030 2 gusting 6 27.8
2019-Sep-21 12:35 032 2 gusting 6 27.8
2019-Sep-21 12:30 035 2 gusting 7 27.8
2019-Sep-21 12:25 030 2 gusting 7 27.8
2019-Sep-21 12:20 023 3 gusting 6 27.8
2019-Sep-21 12:15 027 2 gusting 6 28.3
2019-Sep-21 12:10 039 2 gusting 6 28.3
2019-Sep-21 12:05 040 3 gusting 6 28.3
2019-Sep-21 12:00 034 3 gusting 6 27.8
2019-Sep-21 11:55 034 2 gusting 6 27.8
2019-Sep-21 11:50 039 2 gusting 6 27.8
2019-Sep-21 11:45 044 3 gusting 6 27.8
2019-Sep-21 11:40 041 3 gusting 7 27.8
2019-Sep-21 11:35 034 4 gusting 7 27.2
2019-Sep-21 11:30 035 4 gusting 7 27.2
2019-Sep-21 11:25 037 2 gusting 6 27.8
2019-Sep-21 11:20 019 2 gusting 7 27.8
2019-Sep-21 11:15 010 3 gusting 7 27.8
2019-Sep-21 11:10 015 3 gusting 6 27.8
2019-Sep-21 11:05 021 3 gusting 6 27.8
2019-Sep-21 11:00 027 3 gusting 6 27.8
2019-Sep-21 10:55 032 3 gusting 6 27.8
2019-Sep-21 10:50 032 3 gusting 6 27.8
2019-Sep-21 10:45 029 3 gusting 6 27.8
2019-Sep-21 10:40 023 3 gusting 6 27.8
2019-Sep-21 10:35 016 2 gusting 6 27.8
2019-Sep-21 10:30 013 2 gusting 6 27.8
2019-Sep-21 10:25 032 2 gusting 5 27.8
2019-Sep-21 10:20 044 2 gusting 5 27.8
2019-Sep-21 10:15 026 2 gusting 4 27.8
2019-Sep-21 10:10 016 2 gusting 5 27.8
2019-Sep-21 10:05 030 3 gusting 5 27.2
2019-Sep-21 10:00 036 3 gusting 6 27.2
2019-Sep-21 09:55 025 3 gusting 6 27.2
2019-Sep-21 09:50 022 2 gusting 6 27.2
2019-Sep-21 09:45 034 2 gusting 6 27.2
2019-Sep-21 09:40 037 2 gusting 6 27.2
2019-Sep-21 09:35 032 2 gusting 6 27.2
2019-Sep-21 09:30 028 2 gusting 5 27.2
2019-Sep-21 09:25 035 2 gusting 6 26.7
2019-Sep-21 09:20 027 3 gusting 6 26.7
2019-Sep-21 09:15 021 3 gusting 6 27.2
2019-Sep-21 09:10 029 2 gusting 6 27.2
2019-Sep-21 09:05 028 2 gusting 4 27.2
2019-Sep-21 09:00 020 1 gusting 4 27.2
2019-Sep-21 08:55 023 1 gusting 4 27.2
2019-Sep-21 08:50 023 1 gusting 4 27.2
2019-Sep-21 08:45 017 1 gusting 4 26.7
2019-Sep-21 08:40 022 2 gusting 6 26.7
2019-Sep-21 08:35 026 1 gusting 6 26.7
2019-Sep-21 08:30 024 0 gusting 5 26.7
2019-Sep-21 08:25 012 1 gusting 5 26.7
2019-Sep-21 08:20 002 0 gusting 4 26.7
2019-Sep-21 08:15 012 0 gusting 3 26.7
2019-Sep-21 08:10 013 0 gusting 3 26.7
2019-Sep-21 08:05 358 0 gusting 2 26.7
2019-Sep-21 08:00 350 26.7
2019-Sep-21 07:55 026 0 gusting 3 26.7
2019-Sep-21 07:50 026 0 gusting 3 26.7
2019-Sep-21 07:45 26.7
2019-Sep-21 07:40 090 26.7
2019-Sep-21 07:35 136 0 gusting 50 26.7
2019-Sep-21 07:30 118 1 gusting 50 26.7
2019-Sep-21 07:25 353 26.7
2019-Sep-21 07:20 26.7
2019-Sep-21 07:15 26.7
2019-Sep-21 07:10 26.7
2019-Sep-21 07:05 26.7
2019-Sep-21 07:00 26.7
2019-Sep-21 06:55 26.1
2019-Sep-21 06:50 26.1
2019-Sep-21 06:45 25.6
2019-Sep-21 06:40 25.6
2019-Sep-21 06:35 25.0
2019-Sep-21 06:30 25.0
2019-Sep-21 06:25 24.4
2019-Sep-21 06:20 24.4
2019-Sep-21 06:13 23.9
2019-Sep-21 06:10 23.9
2019-Sep-21 06:05 23.3
2019-Sep-21 06:00 23.3
2019-Sep-21 05:55 23.3
2019-Sep-21 05:50 22.8
2019-Sep-21 05:45 22.8
2019-Sep-21 05:40 22.2
2019-Sep-21 05:35 22.2
2019-Sep-21 05:30 22.2
2019-Sep-21 05:25 21.7
2019-Sep-21 05:20 21.7
2019-Sep-21 05:15 21.7
2019-Sep-21 05:10 21.7
2019-Sep-21 05:05 21.7
2019-Sep-21 05:00 21.7
2019-Sep-21 04:55 21.7
2019-Sep-21 04:50 21.7
2019-Sep-21 04:45 21.7
2019-Sep-21 04:40 21.7
2019-Sep-21 04:35 21.7
2019-Sep-21 04:30 21.7
2019-Sep-21 04:25 21.7
2019-Sep-21 04:20 21.7
2019-Sep-21 04:15 21.7
2019-Sep-21 04:10 21.7
2019-Sep-21 04:05 21.7
2019-Sep-21 04:00 21.7
2019-Sep-21 03:55 21.7
2019-Sep-21 03:50 21.7
2019-Sep-21 03:45 21.7
2019-Sep-21 03:40 21.7
2019-Sep-21 03:35 21.7
2019-Sep-21 03:30 21.7
2019-Sep-21 03:25 21.7
2019-Sep-21 03:20 21.7
2019-Sep-21 03:15 21.7
2019-Sep-21 03:10 21.7
2019-Sep-21 03:05 21.7
2019-Sep-21 03:00 21.7